Time;durP1;ratioP1;P1;durP2;ratioP2;P2;SDS_P1;SDS_P2;PMS_P1;PMS_P2;Temp;Humidity;BMP_temperature;BMP_pressure;BME280_temperature;BME280_humidity;BME280_pressure;Samples;Min_cycle;Max_cycle;Signal;HPM_P1;HPM_P2
2023/06/24 00:02:01;;;;;;;13.65;9.25;;;;;;;20.13;100.00;102353.41;4998697;28;20132;-73
2023/06/24 00:04:28;;;;;;;11.73;9.38;;;;;;;20.10;100.00;102359.09;4983086;28;20129;-73
2023/06/24 00:06:56;;;;;;;14.00;9.05;;;;;;;20.10;100.00;102359.09;4982674;28;20061;-73
2023/06/24 00:09:23;;;;;;;;;;;;;;;20.07;100.00;102362.94;4981223;28;20083;-73
2023/06/24 00:11:49;;;;;;;13.85;9.55;;;;;;;20.04;100.00;102351.78;4991184;28;19980;-72
2023/06/24 00:14:16;;;;;;;9.95;8.85;;;;;;;20.09;100.00;102354.75;4972296;28;20073;-73
2023/06/24 00:16:43;;;;;;;10.70;8.88;;;;;;;20.07;100.00;102346.09;4979809;28;20086;-72
2023/06/24 00:19:09;;;;;;;10.27;9.07;;;;;;;20.05;100.00;102354.28;4966512;28;20049;-72
2023/06/24 00:21:37;;;;;;;13.10;9.27;;;;;;;20.00;100.00;102353.97;4953730;28;20109;-73
2023/06/24 00:24:04;;;;;;;13.13;9.80;;;;;;;19.96;100.00;102360.63;4986797;28;20054;-72
2023/06/24 00:26:32;;;;;;;14.40;9.10;;;;;;;19.95;100.00;102357.16;4964635;28;20823;-72
2023/06/24 00:28:59;;;;;;;13.38;9.23;;;;;;;19.97;100.00;102358.78;4986384;28;20054;-73
2023/06/24 00:31:25;;;;;;;13.57;9.60;;;;;;;19.95;100.00;102356.28;4987179;28;20502;-72
2023/06/24 00:33:52;;;;;;;10.40;9.00;;;;;;;19.95;100.00;102361.63;4976170;28;20105;-73
2023/06/24 00:36:20;;;;;;;14.63;9.02;;;;;;;19.93;100.00;102361.81;4986021;28;20065;-73
2023/06/24 00:38:48;;;;;;;13.00;9.33;;;;;;;19.91;100.00;102366.44;4977710;28;20089;-72
2023/06/24 00:41:16;;;;;;;;;;;;;;;19.94;100.00;102368.78;4989327;28;20503;-72
2023/06/24 00:43:43;;;;;;;;;;;;;;;19.97;100.00;102358.78;4983835;28;19941;-73
2023/06/24 00:46:09;;;;;;;10.80;9.00;;;;;;;19.94;100.00;102358.13;4984833;28;20163;-72
2023/06/24 00:48:36;;;;;;;12.95;9.35;;;;;;;19.95;100.00;102357.16;4960499;28;20086;-72
2023/06/24 00:51:03;;;;;;;17.65;10.02;;;;;;;19.95;100.00;102362.47;4967886;28;20054;-73
2023/06/24 00:53:29;;;;;;;12.90;9.40;;;;;;;19.90;100.00;102359.47;4982140;28;20578;-73
2023/06/24 00:56:01;;;;;;;12.45;9.88;;;;;;;19.87;100.00;102364.31;4979774;28;20058;-73
2023/06/24 00:58:34;;;;;;;12.15;9.70;;;;;;;19.92;100.00;102373.44;4972914;28;20542;-73
2023/06/24 01:01:01;;;;;;;12.93;9.73;;;;;;;19.97;100.00;102366.78;4980170;28;20547;-72
2023/06/24 01:03:29;;;;;;;13.45;9.70;;;;;;;20.02;100.00;102364.44;4967158;28;20069;-73
2023/06/24 01:05:56;;;;;;;12.40;10.02;;;;;;;20.01;100.00;102366.25;4992618;28;20058;-72
2023/06/24 01:08:23;;;;;;;12.45;9.77;;;;;;;20.04;100.00;102367.78;4975592;28;20050;-73
2023/06/24 01:10:53;;;;;;;10.73;9.05;;;;;;;20.05;100.00;102348.09;4989727;28;20132;-73
2023/06/24 01:13:22;;;;;;;12.27;10.02;;;;;;;20.06;100.00;102352.44;4985285;28;20089;-72
2023/06/24 01:15:48;;;;;;;13.70;10.07;;;;;;;20.02;100.00;102348.47;4981013;28;20525;-72
2023/06/24 01:18:31;;;;;;;11.13;9.98;;;;;;;19.98;100.00;102349.81;4978929;28;20593;-72
2023/06/24 01:21:25;;;;;;;12.10;9.63;;;;;;;20.02;100.00;102345.81;4984115;28;20065;-72
2023/06/24 01:24:10;;;;;;;12.60;9.88;;;;;;;20.00;100.00;102353.13;4983961;28;20053;-73
2023/06/24 01:26:59;;;;;;;12.60;9.43;;;;;;;19.99;100.00;102354.13;4968357;28;20058;-73
2023/06/24 01:29:45;;;;;;;13.38;9.70;;;;;;;19.97;100.00;102359.63;4983093;28;20061;-73
2023/06/24 01:32:21;;;;;;;12.50;10.07;;;;;;;19.92;100.00;102349.47;4993731;28;20046;-73
2023/06/24 01:34:55;;;;;;;13.38;10.15;;;;;;;19.88;100.00;102352.66;4986016;28;20074;-73
2023/06/24 01:37:30;;;;;;;14.35;10.02;;;;;;;19.82;100.00;102346.19;4985991;28;20046;-73
2023/06/24 01:40:00;;;;;;;11.60;9.25;;;;;;;19.79;100.00;102343.84;4968417;28;20475;-73
2023/06/24 01:42:30;;;;;;;11.18;9.85;;;;;;;19.76;100.00;102344.22;4977371;28;20101;-73
2023/06/24 01:44:58;;;;;;;10.93;9.57;;;;;;;19.70;100.00;102353.69;4972780;28;20137;-72
2023/06/24 01:47:28;;;;;;;13.35;10.38;;;;;;;19.62;100.00;102359.03;4980938;28;20106;-73
2023/06/24 01:50:00;;;;;;;14.02;10.00;;;;;;;19.64;100.00;102354.34;4983852;28;20065;-73
2023/06/24 01:52:29;;;;;;;13.63;9.23;;;;;;;19.64;100.00;102370.34;4963028;28;20054;-72
2023/06/24 01:54:58;;;;;;;13.63;10.43;;;;;;;19.58;100.00;102367.50;4968677;28;20050;-73
2023/06/24 01:57:30;;;;;;;12.57;10.10;;;;;;;19.60;100.00;102366.34;4988471;28;20504;-73
2023/06/24 01:59:58;;;;;;;11.30;9.57;;;;;;;19.59;100.00;102364.66;4961947;28;20054;-72
2023/06/24 02:02:26;;;;;;;14.68;10.57;;;;;;;19.55;100.00;102356.19;4990343;28;20480;-73
2023/06/24 02:04:55;;;;;;;13.93;10.77;;;;;;;19.52;100.00;102361.88;4978775;28;20109;-73
2023/06/24 02:07:23;;;;;;;14.23;11.50;;;;;;;19.53;100.00;102355.53;4966435;28;20046;-72
2023/06/24 02:09:51;;;;;;;;;;;;;;;19.59;100.00;102353.19;4977573;28;20491;-73
2023/06/24 02:12:18;;;;;;;12.43;9.77;;;;;;;19.56;100.00;102349.03;4982616;28;20262;-73
2023/06/24 02:14:46;;;;;;;12.90;9.80;;;;;;;19.61;100.00;102345.88;4987899;28;20110;-73
2023/06/24 02:17:14;;;;;;;15.83;10.93;;;;;;;19.57;100.00;102345.38;4982330;28;20140;-72
2023/06/24 02:19:42;;;;;;;13.88;10.57;;;;;;;19.58;100.00;102347.03;4978232;28;20478;-73
2023/06/24 02:22:09;;;;;;;;;;;;;;;19.57;100.00;102348.03;4960604;28;20129;-71
2023/06/24 02:24:38;;;;;;;12.30;10.18;;;;;;;19.59;100.00;102351.34;4989221;28;20449;-71
2023/06/24 02:27:07;;;;;;;13.88;10.63;;;;;;;19.54;100.00;102343.03;4978939;28;20426;-71
2023/06/24 02:29:37;;;;;;;12.40;10.43;;;;;;;19.57;100.00;102356.03;4989556;28;20050;-71
2023/06/24 02:32:04;;;;;;;14.32;10.23;;;;;;;19.48;100.00;102343.72;4983042;28;20537;-73
2023/06/24 02:34:30;;;;;;;12.95;10.63;;;;;;;19.49;100.00;102348.88;4979210;28;20476;-73
2023/06/24 02:36:57;;;;;;;12.55;10.30;;;;;;;19.46;100.00;102343.06;4968078;28;20054;-73
2023/06/24 02:39:24;;;;;;;12.00;10.07;;;;;;;19.42;100.00;102342.56;4981573;28;20054;-73
2023/06/24 02:41:53;;;;;;;13.20;10.25;;;;;;;19.40;100.00;102333.09;4991156;28;20057;-72
2023/06/24 02:44:19;;;;;;;11.95;9.55;;;;;;;19.33;100.00;102323.13;4979085;28;21110;-72
2023/06/24 02:46:48;;;;;;;14.40;10.05;;;;;;;19.31;100.00;102322.47;4971178;28;20120;-73
2023/06/24 02:49:18;;;;;;;14.45;10.02;;;;;;;19.27;100.00;102320.31;4975911;28;21014;-74
2023/06/24 02:51:44;;;;;;;13.40;10.38;;;;;;;19.22;100.00;102330.63;4983224;28;20097;-73
2023/06/24 02:54:12;;;;;;;14.57;11.05;;;;;;;19.18;100.00;102327.44;4971129;28;20042;-72
2023/06/24 02:56:43;;;;;;;13.32;11.45;;;;;;;19.15;100.00;102322.44;4982105;28;20058;-73
2023/06/24 02:59:09;;;;;;;14.88;10.57;;;;;;;19.12;100.00;102322.81;4987526;28;20062;-72
2023/06/24 03:01:45;;;;;;;12.27;9.57;;;;;;;19.10;100.00;102325.63;4973763;28;20471;-74
2023/06/24 03:04:12;;;;;;;14.20;10.20;;;;;;;19.08;100.00;102332.13;4977281;28;20484;-73
2023/06/24 03:06:40;;;;;;;12.60;10.10;;;;;;;19.01;100.00;102336.41;4990527;28;20050;-73
2023/06/24 03:09:07;;;;;;;14.25;10.43;;;;;;;18.92;100.00;102333.75;4966570;28;20062;-73
2023/06/24 03:11:41;;;;;;;16.58;10.90;;;;;;;18.94;100.00;102345.06;4989135;28;20046;-73
2023/06/24 03:14:08;;;;;;;13.48;10.63;;;;;;;18.93;100.00;102339.91;4980560;28;20093;-73
2023/06/24 03:16:35;;;;;;;13.50;10.77;;;;;;;18.86;100.00;102334.44;4978292;28;20066;-73
2023/06/24 03:19:02;;;;;;;12.23;10.27;;;;;;;18.88;100.00;102343.06;4975585;28;20912;-74
2023/06/24 03:21:29;;;;;;;11.77;10.52;;;;;;;18.82;100.00;102338.41;4967129;28;20050;-73
2023/06/24 03:23:56;;;;;;;15.23;11.55;;;;;;;18.83;100.00;102337.41;4970600;28;20050;-72
2023/06/24 03:26:23;;;;;;;15.55;11.65;;;;;;;18.79;100.00;102336.03;4978750;28;20458;-73
2023/06/24 03:28:49;;;;;;;14.02;10.48;;;;;;;18.73;100.00;102340.16;4967300;28;20081;-72
2023/06/24 03:31:16;;;;;;;12.27;10.65;;;;;;;18.74;100.00;102343.69;4976849;28;20059;-73
2023/06/24 03:33:44;;;;;;;13.60;9.65;;;;;;;18.72;100.00;102335.88;4989314;28;20439;-73
2023/06/24 03:36:11;;;;;;;14.38;10.48;;;;;;;18.69;100.00;102338.00;4968113;28;20153;-72
2023/06/24 03:38:38;;;;;;;14.52;11.00;;;;;;;18.67;100.00;102340.00;4954401;28;20057;-73
2023/06/24 03:41:04;;;;;;;14.02;10.60;;;;;;;18.67;100.00;102347.97;4981907;28;20117;-73
2023/06/24 03:43:31;;;;;;;15.48;10.30;;;;;;;18.63;100.00;102342.16;4959736;28;20470;-74
2023/06/24 03:45:57;;;;;;;12.50;10.50;;;;;;;18.54;100.00;102333.34;4986944;28;20046;-72
2023/06/24 03:48:24;;;;;;;13.10;10.43;;;;;;;18.63;100.00;102336.84;4981673;28;20422;-72
2023/06/24 03:50:50;;;;;;;16.05;10.15;;;;;;;18.61;100.00;102338.81;4982062;28;20058;-72
2023/06/24 03:53:17;;;;;;;13.75;10.55;;;;;;;18.60;100.00;102339.81;4977795;28;20405;-72
2023/06/24 03:55:44;;;;;;;13.60;11.10;;;;;;;18.58;100.00;102341.78;4981064;28;20117;-72
2023/06/24 03:58:10;;;;;;;17.13;10.70;;;;;;;18.60;100.00;102349.63;4984040;28;20124;-72
2023/06/24 04:00:40;;;;;;;14.68;10.57;;;;;;;18.55;100.00;102344.78;4973393;28;20065;-72
2023/06/24 04:03:07;;;;;;;13.98;10.85;;;;;;;18.57;100.00;102345.47;4981951;28;20054;-72
2023/06/24 04:05:34;;;;;;;15.55;10.82;;;;;;;18.57;100.00;102350.78;4982267;28;20054;-72
2023/06/24 04:08:04;;;;;;;12.10;10.45;;;;;;;18.58;100.00;102349.78;4984470;28;20054;-73
2023/06/24 04:10:31;;;;;;;13.43;10.50;;;;;;;18.56;100.00;102346.44;4971796;28;20046;-73
2023/06/24 04:12:57;;;;;;;13.70;10.88;;;;;;;18.60;100.00;102354.94;4965030;28;20083;-72
2023/06/24 04:15:24;;;;;;;13.90;10.98;;;;;;;18.60;100.00;102349.63;4985643;28;20060;-72
2023/06/24 04:17:50;;;;;;;12.40;10.20;;;;;;;18.62;100.00;102344.97;4974598;28;20057;-72
2023/06/24 04:20:17;;;;;;;12.55;10.25;;;;;;;18.58;100.00;102345.31;4987766;28;20070;-72
2023/06/24 04:22:43;;;;;;;13.77;10.55;;;;;;;18.61;100.00;102343.31;4974547;28;20085;-72
2023/06/24 04:25:10;;;;;;;13.73;11.18;;;;;;;18.61;100.00;102352.13;4976165;28;20058;-72
2023/06/24 04:27:37;;;;;;;14.13;10.68;;;;;;;18.61;100.00;102353.94;4979349;28;20062;-71
2023/06/24 04:30:04;;;;;;;15.20;11.13;;;;;;;18.61;100.00;102351.28;4987848;28;20093;-72
2023/06/24 04:32:30;;;;;;;14.57;11.65;;;;;;;18.61;100.00;102352.13;4984027;28;20047;-72
2023/06/24 04:35:04;;;;;;;14.50;11.00;;;;;;;18.65;100.00;102353.44;4978651;28;20093;-72
2023/06/24 04:37:31;;;;;;;14.07;10.82;;;;;;;18.67;100.00;102350.63;4980876;28;20042;-73
2023/06/24 04:39:57;;;;;;;14.90;11.80;;;;;;;18.70;100.00;102352.94;4975528;28;20042;-72
2023/06/24 04:42:24;;;;;;;18.35;12.07;;;;;;;18.71;100.00;102347.47;4966005;28;20051;-72
2023/06/24 04:44:50;;;;;;;14.88;11.60;;;;;;;18.80;100.00;102353.69;4980403;28;20058;-72
2023/06/24 04:47:18;;;;;;;15.38;11.73;;;;;;;18.83;100.00;102347.22;4985383;28;20164;-72
2023/06/24 04:49:44;;;;;;;15.38;11.43;;;;;;;18.90;100.00;102348.22;4987349;28;20109;-72
2023/06/24 04:52:12;;;;;;;15.40;11.57;;;;;;;18.98;100.00;102358.03;4970790;28;20138;-73
2023/06/24 04:54:38;;;;;;;15.57;11.70;;;;;;;19.03;100.00;102361.03;4966380;28;20060;-72
2023/06/24 04:57:09;;;;;;;14.52;11.77;;;;;;;19.08;100.00;102356.06;4959705;28;20054;-73
2023/06/24 04:59:38;;;;;;;14.88;11.80;;;;;;;19.11;100.00;102351.22;4984012;28;20050;-72
2023/06/24 05:02:04;;;;;;;16.48;11.60;;;;;;;19.18;100.00;102348.72;4964223;28;20038;-73
2023/06/24 05:04:31;;;;;;;14.32;11.27;;;;;;;19.20;100.00;102351.22;4982919;28;20054;-73
2023/06/24 05:06:57;;;;;;;16.88;12.32;;;;;;;19.23;100.00;102353.53;4972774;28;20042;-72
2023/06/24 05:09:24;;;;;;;16.58;11.98;;;;;;;19.25;100.00;102351.53;4966939;28;20093;-73
2023/06/24 05:11:50;;;;;;;15.50;12.52;;;;;;;19.25;100.00;102349.75;4981657;28;20082;-73
2023/06/24 05:14:17;;;;;;;16.73;13.10;;;;;;;19.29;100.00;102348.41;4975541;28;20781;-73
2023/06/24 05:16:45;;;;;;;17.58;13.10;;;;;;;19.28;100.00;102345.91;4988409;28;20046;-72
2023/06/24 05:19:11;;;;;;;16.55;12.80;;;;;;;19.21;100.00;102347.56;4975762;28;20797;-73
2023/06/24 05:21:38;;;;;;;18.48;13.40;;;;;;;19.17;100.00;102347.91;4975166;28;20058;-73
2023/06/24 05:24:05;;;;;;;15.70;12.55;;;;;;;19.15;100.00;102344.59;4987173;28;20404;-72
2023/06/24 05:26:31;;;;;;;18.63;13.02;;;;;;;19.17;100.00;102353.22;4977369;28;20070;-73
2023/06/24 05:28:58;;;;;;;19.48;12.60;;;;;;;19.14;100.00;102358.03;4987856;28;20073;-73
2023/06/24 05:31:24;;;;;;;16.83;12.00;;;;;;;19.13;100.00;102351.03;4975196;28;20050;-73
2023/06/24 05:33:51;;;;;;;15.40;11.40;;;;;;;19.21;100.00;102352.88;4982131;28;20550;-73
2023/06/24 05:36:17;;;;;;;15.45;11.35;;;;;;;19.30;100.00;102362.53;4979502;28;20072;-73
2023/06/24 05:38:44;;;;;;;16.52;11.88;;;;;;;19.35;100.00;102366.34;4973981;28;20478;-73
2023/06/24 05:41:10;;;;;;;14.57;10.45;;;;;;;19.36;100.00;102362.69;4976980;28;20058;-72
2023/06/24 05:43:37;;;;;;;13.65;9.23;;;;;;;19.40;100.00;102373.00;4964417;28;20114;-73
2023/06/24 05:46:05;;;;;;;13.57;8.20;;;;;;;19.45;100.00;102366.19;4991298;28;20486;-73
2023/06/24 05:48:32;;;;;;;13.23;7.80;;;;;;;19.49;100.00;102362.19;4961871;28;20088;-73
2023/06/24 05:50:58;;;;;;;13.73;7.78;;;;;;;19.57;100.00;102369.34;4985895;28;20064;-73
2023/06/24 05:53:25;;;;;;;10.80;7.05;;;;;;;19.60;100.00;102371.66;4980257;28;20050;-73
2023/06/24 05:55:51;;;;;;;8.35;6.57;;;;;;;19.62;100.00;102369.66;4971847;28;20746;-72
2023/06/24 05:58:18;;;;;;;10.43;6.22;;;;;;;19.68;100.00;102365.47;4988355;28;20054;-72
2023/06/24 06:00:45;;;;;;;8.50;6.30;;;;;;;19.69;95.60;102375.97;4982631;28;20050;-72
2023/06/24 06:03:11;;;;;;;11.10;6.55;;;;;;;19.71;95.93;102374.00;4978326;28;20054;-72
2023/06/24 06:05:38;;;;;;;9.80;6.78;;;;;;;19.72;93.97;102381.00;4984180;28;20046;-72
2023/06/24 06:08:04;;;;;;;13.60;6.55;;;;;;;19.81;100.00;102378.31;4988732;28;20396;-72
2023/06/24 06:10:31;;;;;;;9.15;6.25;;;;;;;19.82;98.96;102378.16;4967537;28;20128;-72
2023/06/24 06:12:57;;;;;;;11.43;6.82;;;;;;;19.88;96.33;102385.44;4988931;28;20127;-72
2023/06/24 06:15:23;;;;;;;10.38;6.10;;;;;;;19.91;97.30;102377.09;4968921;28;20126;-72
2023/06/24 06:17:51;;;;;;;10.80;6.28;;;;;;;19.96;98.92;102379.28;4975709;28;20050;-73
2023/06/24 06:20:18;;;;;;;9.90;6.88;;;;;;;19.93;94.18;102375.13;4990026;28;20133;-72
2023/06/24 06:22:44;;;;;;;11.05;6.95;;;;;;;19.99;94.13;102378.91;4964254;28;20521;-72
2023/06/24 06:25:11;;;;;;;11.77;7.68;;;;;;;19.97;90.64;102380.91;4973030;28;20406;-72
2023/06/24 06:27:37;;;;;;;12.15;8.45;;;;;;;19.98;92.27;102379.94;4989675;28;20109;-72
2023/06/24 06:30:05;;;;;;;11.90;7.65;;;;;;;20.02;96.02;102383.91;4975961;28;20050;-73
2023/06/24 06:32:31;;;;;;;11.30;7.13;;;;;;;20.05;93.02;102388.06;4982490;28;20079;-73
2023/06/24 06:34:58;;;;;;;10.60;7.72;;;;;;;20.13;95.32;102391.53;4964358;28;20069;-73
2023/06/24 06:37:24;;;;;;;9.98;7.78;;;;;;;20.16;96.03;102382.38;4992596;28;20142;-73
2023/06/24 06:39:51;;;;;;;10.02;6.78;;;;;;;20.25;97.12;102380.53;4983504;28;20073;-74
2023/06/24 06:42:18;;;;;;;9.35;6.45;;;;;;;20.28;91.80;102374.81;4989491;28;20415;-72
2023/06/24 06:44:44;;;;;;;10.38;6.20;;;;;;;20.31;89.94;102375.31;4966946;28;20077;-73
2023/06/24 06:47:11;;;;;;;13.05;6.47;;;;;;;20.33;88.42;102378.63;4979802;28;20051;-73
2023/06/24 06:49:37;;;;;;;10.82;5.88;;;;;;;20.39;86.59;102385.13;4987721;28;20762;-73
2023/06/24 06:52:05;;;;;;;8.45;5.85;;;;;;;20.45;88.39;102383.59;4977347;28;20050;-73
2023/06/24 06:54:31;;;;;;;10.57;6.47;;;;;;;20.48;91.52;102389.41;4972824;28;20046;-73
2023/06/24 06:57:02;;;;;;;11.07;6.85;;;;;;;20.54;95.57;102387.84;4978300;28;20542;-73
2023/06/24 06:59:29;;;;;;;10.38;7.05;;;;;;;20.54;90.68;102390.53;4985868;28;20431;-73
2023/06/24 07:01:56;;;;;;;13.20;7.20;;;;;;;20.57;93.25;102384.03;4989911;28;20050;-73
2023/06/24 07:04:22;;;;;;;11.75;7.30;;;;;;;20.59;88.56;102387.34;4981829;28;20054;-72
2023/06/24 07:06:49;;;;;;;9.60;6.40;;;;;;;20.63;91.70;102388.69;4978632;28;20073;-72
2023/06/24 07:09:16;;;;;;;17.70;9.50;;;;;;;20.65;93.53;102387.50;4979903;28;20065;-72
2023/06/24 07:11:43;;;;;;;13.70;7.78;;;;;;;20.71;93.67;102396.63;4976855;28;20053;-72
2023/06/24 07:14:09;;;;;;;10.40;7.22;;;;;;;20.75;94.04;102392.63;4978565;28;20058;-72
2023/06/24 07:16:36;;;;;;;13.70;7.78;;;;;;;20.82;92.04;102398.09;4971742;28;20058;-73
2023/06/24 07:19:03;;;;;;;11.52;6.63;;;;;;;20.83;90.05;102403.22;4989347;28;20054;-73
2023/06/24 07:21:29;;;;;;;10.55;7.57;;;;;;;20.83;85.12;102402.41;4976192;28;20057;-74
2023/06/24 07:23:56;;;;;;;9.55;6.72;;;;;;;20.92;86.49;102406.69;4979569;28;20057;-73
2023/06/24 07:26:22;;;;;;;10.60;7.13;;;;;;;20.94;85.13;102408.16;4959718;28;20511;-72
2023/06/24 07:28:49;;;;;;;11.90;6.75;;;;;;;20.97;81.47;102406.16;4964856;28;20072;-73
2023/06/24 07:31:34;;;;;;;11.23;7.07;;;;;;;21.00;82.95;102408.47;4984335;28;20101;-73
2023/06/24 07:34:01;;;;;;;10.25;7.70;;;;;;;20.97;78.28;102416.81;4989785;28;20475;-73
2023/06/24 07:36:27;;;;;;;12.32;6.57;;;;;;;20.98;78.84;102403.31;4992353;28;20121;-73
2023/06/24 07:38:53;;;;;;;11.85;7.45;;;;;;;21.00;78.05;102411.97;4983283;28;20133;-73
2023/06/24 07:41:20;;;;;;;8.80;6.15;;;;;;;21.06;75.38;102419.25;4997187;28;20042;-73
2023/06/24 07:43:46;;;;;;;10.32;5.90;;;;;;;21.09;72.50;102415.41;4989324;28;20047;-73
2023/06/24 07:46:13;;;;;;;9.40;5.97;;;;;;;21.12;71.43;102418.53;4974473;28;20080;-72
2023/06/24 07:48:40;;;;;;;8.07;5.30;;;;;;;21.21;73.19;102414.00;4984961;28;20149;-72
2023/06/24 07:51:06;;;;;;;8.00;5.35;;;;;;;21.30;72.87;102417.41;4991360;28;20050;-72
2023/06/24 07:53:33;;;;;;;7.90;4.22;;;;;;;21.36;67.10;102413.19;4984611;28;20133;-72
2023/06/24 07:55:59;;;;;;;8.32;4.57;;;;;;;21.43;64.67;102417.69;4980512;28;20081;-72
2023/06/24 07:58:26;;;;;;;6.70;4.57;;;;;;;21.49;66.92;102416.94;4984204;28;20551;-72
2023/06/24 08:00:52;;;;;;;6.95;4.88;;;;;;;21.57;65.91;102409.91;4985769;28;20526;-72
2023/06/24 08:03:19;;;;;;;9.25;4.28;;;;;;;21.58;67.00;102403.53;4984924;28;20085;-72
2023/06/24 08:05:46;;;;;;;6.70;4.18;;;;;;;21.62;66.06;102404.81;4980002;28;20038;-73
2023/06/24 08:08:15;;;;;;;8.95;4.75;;;;;;;21.60;63.00;102406.84;4977902;28;20106;-73
2023/06/24 08:10:41;;;;;;;6.97;4.05;;;;;;;21.60;63.69;102398.84;4988061;28;20154;-73
2023/06/24 08:13:08;;;;;;;7.78;4.43;;;;;;;21.66;63.82;102393.63;4979057;28;20058;-74
2023/06/24 08:15:34;;;;;;;7.15;3.70;;;;;;;21.73;63.25;102396.38;4969803;28;20475;-73
2023/06/24 08:18:04;;;;;;;6.43;3.83;;;;;;;21.88;63.36;102391.06;4982237;28;20054;-73
2023/06/24 08:20:30;;;;;;;7.40;4.05;;;;;;;22.03;66.17;102391.03;4984017;28;20515;-73
2023/06/24 08:22:57;;;;;;;5.60;3.75;;;;;;;22.13;65.87;102396.97;4972312;28;20026;-74
2023/06/24 08:25:23;;;;;;;6.57;4.28;;;;;;;22.25;61.75;102408.03;5005439;28;20054;-73
2023/06/24 08:27:50;;;;;;;5.68;4.00;;;;;;;22.40;62.10;102395.47;5008552;28;20486;-73
2023/06/24 08:30:16;;;;;;;8.05;4.88;;;;;;;;;;4988080;28;20034;-72
2023/06/24 08:32:43;;;;;;;8.23;5.38;;;;;;;22.51;59.23;102400.34;4990033;28;20105;-73
2023/06/24 08:35:10;;;;;;;7.88;4.68;;;;;;;22.69;59.55;102389.22;4981961;28;20047;-73
2023/06/24 08:37:37;;;;;;;6.82;4.20;;;;;;;22.94;59.68;102390.72;4969123;28;20265;-73
2023/06/24 08:40:05;;;;;;;7.25;4.45;;;;;;;23.20;58.33;102392.84;4986125;28;20073;-73
2023/06/24 08:42:31;;;;;;;8.40;4.85;;;;;;;23.27;56.79;102391.88;4969759;28;20051;-73
2023/06/24 08:44:58;;;;;;;8.30;5.53;;;;;;;23.48;56.13;102390.19;4991032;28;20113;-72
2023/06/24 08:47:25;;;;;;;8.93;5.18;;;;;;;23.57;55.77;102386.34;4971913;28;20562;-73
2023/06/24 08:49:56;;;;;;;9.33;5.83;;;;;;;23.80;54.85;102385.31;4980424;28;20046;-72
2023/06/24 08:52:27;;;;;;;8.18;4.88;;;;;;;24.02;55.89;102376.16;4977807;28;20061;-73
2023/06/24 08:54:57;;;;;;;6.85;4.63;;;;;;;24.22;53.15;102378.91;4986673;28;20506;-72
2023/06/24 08:57:23;;;;;;;11.40;6.35;;;;;;;24.21;53.41;102379.97;4982640;28;20369;-73
2023/06/24 08:59:50;;;;;;;9.30;5.90;;;;;;;24.56;54.49;102373.69;4980045;28;20423;-73
2023/06/24 09:02:17;;;;;;;8.23;5.30;;;;;;;25.02;55.56;102378.34;4978046;28;20050;-73
2023/06/24 09:04:43;;;;;;;6.63;4.50;;;;;;;25.15;52.95;102385.56;4954219;28;20510;-74
2023/06/24 09:07:11;;;;;;;8.38;4.30;;;;;;;25.48;52.06;102380.22;4979341;28;20046;-74
2023/06/24 09:09:44;;;;;;;6.75;4.63;;;;;;;25.58;51.87;102383.31;4974987;28;20054;-74
2023/06/24 09:12:14;;;;;;;8.52;5.47;;;;;;;25.59;52.83;102382.28;4987439;28;20050;-74
2023/06/24 09:14:48;;;;;;;8.32;5.50;;;;;;;25.72;52.18;102378.75;4977759;28;20179;-74
2023/06/24 09:17:14;;;;;;;7.80;5.30;;;;;;;25.88;53.46;102382.84;4986864;28;20415;-74
2023/06/24 09:19:41;;;;;;;9.20;5.85;;;;;;;25.88;50.63;102380.16;4965296;28;20101;-73
2023/06/24 09:22:17;;;;;;;9.77;5.20;;;;;;;25.75;50.28;102375.63;4981917;28;20441;-74
2023/06/24 09:24:46;;;;;;;7.55;5.13;;;;;;;25.82;49.84;102378.31;4971821;28;20050;-73
2023/06/24 09:27:14;;;;;;;9.52;4.95;;;;;;;25.85;48.42;102373.34;4968768;28;20050;-73
2023/06/24 09:29:42;;;;;;;7.30;4.78;;;;;;;25.90;48.08;102371.88;4992070;28;20108;-73
2023/06/24 09:32:09;;;;;;;;;;;;;;;25.78;46.66;102363.66;4980190;28;20150;-73
2023/06/24 09:34:36;;;;;;;6.47;4.70;;;;;;;25.92;48.25;102370.66;4988363;28;20294;-73
2023/06/24 09:37:04;;;;;;;6.53;4.30;;;;;;;26.14;46.96;102359.63;4985727;28;20465;-73
2023/06/24 09:39:39;;;;;;;8.70;4.50;;;;;;;26.21;46.13;102355.06;4988682;28;20136;-73
2023/06/24 09:42:09;;;;;;;6.88;4.85;;;;;;;26.22;47.16;102360.19;4973647;28;20074;-73
2023/06/24 09:44:35;;;;;;;9.93;6.22;;;;;;;26.26;46.76;102349.03;4973256;28;20051;-73
2023/06/24 09:47:02;;;;;;;8.07;5.38;;;;;;;26.40;48.57;102351.44;4975693;28;20053;-73
2023/06/24 09:49:29;;;;;;;7.97;4.65;;;;;;;26.77;47.81;102348.94;4959675;28;20050;-73
2023/06/24 09:51:57;;;;;;;10.02;4.75;;;;;;;26.97;47.25;102343.44;4991871;28;20565;-74
2023/06/24 09:54:28;;;;;;;7.88;5.03;;;;;;;27.18;48.52;102341.38;4983348;28;20052;-74
2023/06/24 09:57:02;;;;;;;9.57;6.07;;;;;;;27.21;46.74;102346.34;4971722;28;20078;-73
2023/06/24 09:59:30;;;;;;;9.20;6.38;;;;;;;27.32;46.16;102344.78;4984709;28;20058;-74
2023/06/24 10:01:57;;;;;;;7.25;5.13;;;;;;;27.60;47.15;102350.53;4977549;28;20061;-73
2023/06/24 10:04:26;;;;;;;7.80;5.35;;;;;;;27.81;46.93;102349.28;4986399;28;20387;-74
2023/06/24 10:06:54;;;;;;;9.07;6.20;;;;;;;27.58;44.96;102344.53;4982629;28;20133;-74
2023/06/24 10:09:20;;;;;;;7.50;5.30;;;;;;;27.49;44.33;102348.56;4971311;28;20093;-74
2023/06/24 10:11:47;;;;;;;8.75;6.35;;;;;;;27.33;44.16;102344.59;4982126;28;20054;-74
2023/06/24 10:14:15;;;;;;;7.50;5.10;;;;;;;27.44;45.40;102345.72;4982630;28;20105;-74
2023/06/24 10:16:42;;;;;;;7.60;5.65;;;;;;;27.40;45.57;102344.50;4966041;28;20487;-73
2023/06/24 10:19:09;;;;;;;8.23;5.20;;;;;;;27.61;43.76;102343.25;4973139;28;20515;-73
2023/06/24 10:21:52;;;;;;;7.13;4.80;;;;;;;27.83;43.99;102345.50;4990141;28;20069;-74
2023/06/24 10:24:39;;;;;;;9.43;5.40;;;;;;;28.14;44.10;102339.97;4979109;28;20058;-73
2023/06/24 10:27:08;;;;;;;9.32;4.90;;;;;;;28.00;43.83;102335.78;4985827;28;20495;-74
2023/06/24 10:29:39;;;;;;;9.00;5.70;;;;;;;28.28;44.03;102332.50;4974513;28;20046;-74
2023/06/24 10:32:09;;;;;;;9.00;5.50;;;;;;;28.26;43.72;102334.63;4991219;28;20061;-74
2023/06/24 10:34:44;;;;;;;6.88;5.00;;;;;;;28.57;45.11;102340.84;4983797;28;20096;-74
2023/06/24 10:37:17;;;;;;;6.60;5.25;;;;;;;28.50;42.74;102329.28;4971213;28;20046;-73
2023/06/24 10:39:51;;;;;;;6.55;4.85;;;;;;;28.53;42.09;102331.56;4981416;28;20057;-73
2023/06/24 10:42:36;;;;;;;8.20;4.35;;;;;;;28.65;43.33;102327.03;4965733;28;20124;-74
2023/06/24 10:45:08;;;;;;;6.90;4.80;;;;;;;28.71;43.52;102319.88;4987737;28;20495;-74
2023/06/24 10:47:41;;;;;;;8.43;5.03;;;;;;;28.49;42.63;102322.28;4969359;28;20046;-73
2023/06/24 10:50:09;;;;;;;9.82;5.28;;;;;;;28.43;43.08;102320.50;4988917;28;20050;-74
2023/06/24 10:53:01;;;;;;;7.15;4.60;;;;;;;28.60;44.04;102324.22;4979198;28;20668;-74
2023/06/24 10:55:28;;;;;;;7.65;4.70;;;;;;;28.65;43.28;102321.63;4978649;28;20051;-74
2023/06/24 10:57:54;;;;;;;7.80;4.82;;;;;;;28.68;43.47;102313.06;4975780;28;20073;-74
2023/06/24 11:00:22;;;;;;;7.38;3.92;;;;;;;29.13;47.42;102320.66;4981840;28;20055;-74
2023/06/24 11:02:49;;;;;;;7.95;4.18;;;;;;;29.18;42.19;102320.75;4974711;28;20058;-73
2023/06/24 11:05:15;;;;;;;5.60;3.80;;;;;;;29.44;45.71;102315.09;4982167;28;20057;-74
2023/06/24 11:07:42;;;;;;;5.07;3.88;;;;;;;29.72;44.23;102309.81;4978876;28;20078;-74
2023/06/24 11:10:13;;;;;;;8.77;4.93;;;;;;;29.87;42.64;102313.88;4971606;28;20043;-74
2023/06/24 11:12:41;;;;;;;14.20;5.22;;;;;;;29.88;43.00;102310.94;4988954;28;20078;-74
2023/06/24 11:15:13;;;;;;;6.22;5.07;;;;;;;29.80;42.54;102303.19;4972518;28;20141;-74
2023/06/24 11:17:41;;;;;;;8.07;5.75;;;;;;;29.94;42.49;102314.56;4973295;28;20109;-74
2023/06/24 11:20:09;;;;;;;11.70;5.78;;;;;;;30.10;43.75;102305.66;4982894;28;20068;-74